createdAt,value
2019-03-22T00:02:06.043Z,91.82
2019-03-22T00:04:32.097Z,91.58
2019-03-22T00:06:58.119Z,91.38
2019-03-22T00:09:24.519Z,92.31
2019-03-22T00:11:50.546Z,91.99
2019-03-22T00:14:16.700Z,92.06
2019-03-22T00:16:42.730Z,92.20
2019-03-22T00:19:08.864Z,91.86
2019-03-22T00:21:34.918Z,91.53
2019-03-22T00:24:01.107Z,91.76
2019-03-22T00:26:27.130Z,92.03
2019-03-22T00:28:53.560Z,91.77
2019-03-22T00:31:19.689Z,91.48
2019-03-22T00:33:45.917Z,91.46
2019-03-22T00:36:12.042Z,91.66
2019-03-22T00:38:38.199Z,91.32
2019-03-22T00:41:04.265Z,91.58
2019-03-22T00:43:30.424Z,91.39
2019-03-22T00:45:57.886Z,91.00
2019-03-22T00:48:24.937Z,91.17
2019-03-22T00:50:51.240Z,90.89
2019-03-22T00:53:19.209Z,90.53
2019-03-22T00:55:46.423Z,90.58
2019-03-22T00:58:12.475Z,90.89
2019-03-22T01:00:38.739Z,91.09
2019-03-22T01:03:05.041Z,91.36
2019-03-22T01:05:31.720Z,91.44
2019-03-22T01:07:57.826Z,91.23
2019-03-22T01:10:24.257Z,91.47
2019-03-22T01:12:51.817Z,91.49
2019-03-22T01:15:17.922Z,90.83
2019-03-22T01:17:44.074Z,91.37
2019-03-22T01:20:11.022Z,91.35
2019-03-22T01:22:37.919Z,91.06
2019-03-22T01:25:05.176Z,90.75
2019-03-22T01:27:40.228Z,90.70
2019-03-22T01:30:01.363Z,90.74
2019-03-22T01:32:27.504Z,90.97
2019-03-22T01:34:53.574Z,91.03
2019-03-22T01:37:19.740Z,90.96
2019-03-22T01:39:45.927Z,91.25
2019-03-22T01:42:12.118Z,91.47
2019-03-22T01:44:38.162Z,91.32
2019-03-22T01:47:04.559Z,91.55
2019-03-22T01:49:31.208Z,91.82
2019-03-22T01:51:57.442Z,91.45
2019-03-22T01:54:23.521Z,91.26
2019-03-22T01:56:49.560Z,91.89
2019-03-22T01:59:15.632Z,91.90
2019-03-22T02:01:41.697Z,92.14
2019-03-22T02:04:07.849Z,91.88
2019-03-22T02:06:34.088Z,92.20
2019-03-22T02:09:00.219Z,92.77
2019-03-22T02:11:26.225Z,93.04
2019-03-22T02:13:52.260Z,93.51
2019-03-22T02:16:18.384Z,93.80
2019-03-22T02:18:44.501Z,94.28
2019-03-22T02:21:10.537Z,95.35
2019-03-22T02:23:36.682Z,95.69
2019-03-22T02:26:02.787Z,95.80
2019-03-22T02:28:29.030Z,95.94
2019-03-22T02:30:55.218Z,95.73
2019-03-22T02:33:21.271Z,95.46
2019-03-22T02:35:47.416Z,95.79
2019-03-22T02:38:13.470Z,95.96
2019-03-22T02:40:39.714Z,96.21
2019-03-22T02:43:05.742Z,96.41
2019-03-22T02:45:31.903Z,96.73
2019-03-22T02:47:58.049Z,96.78
2019-03-22T02:50:24.310Z,97.15
2019-03-22T02:52:50.479Z,97.36
2019-03-22T02:55:16.649Z,97.77
2019-03-22T02:57:42.853Z,97.94
2019-03-22T03:00:17.182Z,98.15
2019-03-22T03:02:43.395Z,97.98
2019-03-22T03:05:10.108Z,97.59
2019-03-22T03:07:36.261Z,98.17
2019-03-22T03:10:05.117Z,97.93
2019-03-22T03:12:31.268Z,97.96
2019-03-22T03:14:57.394Z,97.57
2019-03-22T03:17:23.567Z,97.73
2019-03-22T03:19:49.747Z,97.57
2019-03-22T03:22:15.875Z,97.20
2019-03-22T03:24:41.908Z,97.21
2019-03-22T03:27:09.931Z,97.27
2019-03-22T03:29:36.100Z,97.68
2019-03-22T03:32:02.475Z,97.74
2019-03-22T03:34:28.701Z,97.66
2019-03-22T03:36:55.075Z,97.38
2019-03-22T03:39:22.045Z,97.21
2019-03-22T03:41:48.141Z,97.13
2019-03-22T03:44:15.833Z,96.77
2019-03-22T03:46:41.979Z,96.81
2019-03-22T03:49:08.046Z,96.58
2019-03-22T03:51:34.447Z,96.68
2019-03-22T03:54:00.514Z,96.54
2019-03-22T03:56:26.567Z,96.36
2019-03-22T03:58:53.185Z,96.62
2019-03-22T04:01:19.351Z,96.42
2019-03-22T04:03:45.468Z,96.47
2019-03-22T04:06:11.559Z,96.41
2019-03-22T04:08:37.706Z,96.49
2019-03-22T04:11:04.039Z,96.41
2019-03-22T04:13:30.186Z,96.50
2019-03-22T04:15:56.213Z,96.50
2019-03-22T04:18:22.344Z,96.72
2019-03-22T04:20:48.876Z,96.50
2019-03-22T04:23:15.015Z,96.03
2019-03-22T04:25:41.064Z,95.96
2019-03-22T04:28:07.208Z,96.21
2019-03-22T04:30:33.580Z,96.38
2019-03-22T04:32:59.643Z,96.45
2019-03-22T04:35:27.866Z,96.45
2019-03-22T04:37:53.956Z,96.67
2019-03-22T04:40:25.830Z,96.65
2019-03-22T04:42:52.620Z,96.59
2019-03-22T04:45:19.873Z,96.71
2019-03-22T04:47:47.539Z,97.10
2019-03-22T04:50:14.711Z,97.05
2019-03-22T04:52:41.072Z,96.85
2019-03-22T04:55:08.164Z,96.77
2019-03-22T04:57:34.682Z,96.29
2019-03-22T05:00:01.367Z,96.17
2019-03-22T05:02:29.624Z,96.25
2019-03-22T05:04:56.080Z,96.09
2019-03-22T05:07:22.529Z,96.22
2019-03-22T05:09:49.996Z,96.01
2019-03-22T05:12:18.733Z,95.97
2019-03-22T05:14:45.996Z,95.76
2019-03-22T05:17:13.155Z,95.44
2019-03-22T05:19:43.172Z,95.34
2019-03-22T05:22:12.066Z,95.29
2019-03-22T05:24:40.610Z,95.09
2019-03-22T05:27:07.963Z,95.39
2019-03-22T05:29:38.719Z,95.22
2019-03-22T05:32:08.917Z,94.57
2019-03-22T05:34:34.981Z,94.07
2019-03-22T05:37:01.223Z,93.97
2019-03-22T05:39:27.242Z,94.76
2019-03-22T05:41:53.717Z,94.34
2019-03-22T05:44:20.160Z,94.59
2019-03-22T05:46:48.924Z,94.86
2019-03-22T05:49:14.468Z,94.70
2019-03-22T05:51:40.618Z,94.49
2019-03-22T05:54:06.677Z,94.41
2019-03-22T05:56:32.852Z,94.62
2019-03-22T05:58:59.018Z,94.77
2019-03-22T06:01:25.172Z,95.09
2019-03-22T06:03:51.348Z,94.91
2019-03-22T06:06:17.503Z,94.29
2019-03-22T06:08:43.544Z,94.44
2019-03-22T06:11:11.768Z,93.88
2019-03-22T06:13:38.071Z,94.34
2019-03-22T06:16:04.258Z,94.54
2019-03-22T06:18:32.793Z,94.66
2019-03-22T06:20:58.852Z,94.12
2019-03-22T06:23:25.006Z,93.76
2019-03-22T06:25:51.131Z,93.19
2019-03-22T06:28:17.436Z,93.41
2019-03-22T06:30:43.475Z,93.35
2019-03-22T06:33:09.720Z,93.77
2019-03-22T06:35:35.788Z,93.32
2019-03-22T06:38:01.872Z,92.76
2019-03-22T06:40:27.986Z,92.67
2019-03-22T06:43:02.792Z,92.45
2019-03-22T06:45:28.941Z,92.28
2019-03-22T06:47:55.618Z,92.19
2019-03-22T06:50:21.771Z,91.67
2019-03-22T06:52:48.348Z,91.56
2019-03-22T06:55:14.538Z,91.45
2019-03-22T06:57:40.716Z,92.34
2019-03-22T07:00:09.735Z,91.96
2019-03-22T07:02:35.974Z,91.39
2019-03-22T07:05:04.151Z,91.57
2019-03-22T07:07:30.181Z,90.13
2019-03-22T07:09:56.296Z,90.34
2019-03-22T07:12:22.415Z,89.70
2019-03-22T07:14:48.543Z,89.84
2019-03-22T07:17:14.844Z,89.08
2019-03-22T07:19:40.913Z,88.18
2019-03-22T07:22:07.059Z,89.48
2019-03-22T07:24:33.227Z,87.59
2019-03-22T07:26:59.617Z,86.81
2019-03-22T07:29:25.784Z,87.59
2019-03-22T07:31:51.869Z,88.59
2019-03-22T07:34:18.068Z,87.39
2019-03-22T07:36:46.787Z,88.31
2019-03-22T07:39:12.510Z,88.68
2019-03-22T07:41:38.651Z,87.62
2019-03-22T07:44:04.871Z,88.28
2019-03-22T07:46:30.950Z,88.31
2019-03-22T07:48:57.047Z,88.50
2019-03-22T07:51:23.171Z,88.96
2019-03-22T07:53:49.279Z,89.39
2019-03-22T07:56:15.634Z,88.81
2019-03-22T07:58:41.698Z,89.13
2019-03-22T08:01:07.912Z,89.07
2019-03-22T08:03:34.107Z,88.97
2019-03-22T08:06:00.272Z,89.46
2019-03-22T08:08:26.699Z,89.69
2019-03-22T08:10:52.953Z,89.26
2019-03-22T08:13:19.126Z,88.87
2019-03-22T08:15:45.188Z,88.87
2019-03-22T08:18:11.435Z,88.29
2019-03-22T08:20:38.900Z,88.76
2019-03-22T08:23:09.457Z,89.02
2019-03-22T08:25:35.583Z,89.06
2019-03-22T08:28:01.881Z,89.60
2019-03-22T08:30:28.019Z,89.97
2019-03-22T08:32:54.151Z,89.17
2019-03-22T08:35:20.358Z,87.88
2019-03-22T08:37:52.770Z,87.77
2019-03-22T08:40:16.104Z,87.42
2019-03-22T08:42:42.242Z,87.94
2019-03-22T08:45:11.296Z,87.48
2019-03-22T08:47:36.908Z,86.79
2019-03-22T08:50:04.836Z,86.60
2019-03-22T08:52:31.107Z,87.13
2019-03-22T08:54:57.273Z,86.97
2019-03-22T08:57:25.024Z,87.40
2019-03-22T08:59:51.343Z,87.33
2019-03-22T09:02:18.432Z,87.10
2019-03-22T09:04:45.920Z,87.25
2019-03-22T09:07:12.181Z,86.69
2019-03-22T09:09:41.722Z,87.09
2019-03-22T09:12:06.282Z,87.49
2019-03-22T09:14:32.605Z,87.51
2019-03-22T09:16:58.735Z,88.30
2019-03-22T09:19:24.961Z,88.52
2019-03-22T09:21:52.348Z,88.68
2019-03-22T09:24:19.116Z,88.77
2019-03-22T09:26:47.874Z,88.81
2019-03-22T09:29:13.566Z,88.95
2019-03-22T09:31:39.688Z,89.78
2019-03-22T09:34:05.824Z,89.74
2019-03-22T09:36:32.049Z,89.20
2019-03-22T09:38:58.202Z,88.87
2019-03-22T09:41:24.293Z,88.42
2019-03-22T09:43:50.536Z,88.49
2019-03-22T09:46:16.652Z,89.02
2019-03-22T09:48:42.963Z,87.85
2019-03-22T09:51:10.438Z,87.83
2019-03-22T09:53:36.633Z,87.62
2019-03-22T09:56:02.854Z,87.62
2019-03-22T09:58:28.987Z,87.95
2019-03-22T10:00:55.539Z,88.44
2019-03-22T10:03:21.769Z,88.91
2019-03-22T10:05:47.881Z,89.13
2019-03-22T10:08:14.036Z,89.07
2019-03-22T10:10:40.339Z,88.73
2019-03-22T10:13:06.455Z,88.91
2019-03-22T10:15:32.673Z,88.83
2019-03-22T10:17:58.744Z,88.77
2019-03-22T10:20:24.791Z,89.39
2019-03-22T10:22:51.006Z,89.63
2019-03-22T10:25:17.235Z,88.63
2019-03-22T10:27:43.705Z,88.39
2019-03-22T10:30:12.426Z,87.58
2019-03-22T10:32:38.648Z,86.87
2019-03-22T10:35:06.073Z,87.74
2019-03-22T10:37:32.365Z,87.02
2019-03-22T10:39:58.505Z,87.13
2019-03-22T10:42:24.760Z,87.34
2019-03-22T10:44:50.863Z,87.27
2019-03-22T10:47:18.157Z,87.55
2019-03-22T10:49:44.505Z,87.76
2019-03-22T10:52:10.560Z,87.52
2019-03-22T10:54:36.818Z,87.01
2019-03-22T10:57:03.252Z,87.47
2019-03-22T10:59:29.530Z,87.33
2019-03-22T11:02:03.177Z,86.47
2019-03-22T11:04:23.653Z,87.74
2019-03-22T11:06:49.859Z,88.01
2019-03-22T11:09:16.125Z,87.43
2019-03-22T11:11:43.257Z,86.88
2019-03-22T11:14:09.480Z,86.55
2019-03-22T11:16:35.914Z,87.07
2019-03-22T11:19:02.074Z,87.42
2019-03-22T11:21:28.176Z,89.01
2019-03-22T11:23:54.616Z,87.44
2019-03-22T11:26:20.737Z,86.64
2019-03-22T11:28:47.270Z,85.07
2019-03-22T11:31:13.520Z,85.43
2019-03-22T11:33:39.546Z,85.52
2019-03-22T11:36:05.664Z,84.66
2019-03-22T11:38:32.025Z,84.85
2019-03-22T11:40:58.229Z,85.01
2019-03-22T11:43:25.618Z,85.37
2019-03-22T11:45:51.923Z,85.47
2019-03-22T11:48:18.331Z,85.00
2019-03-22T11:50:45.731Z,86.21
2019-03-22T11:53:12.027Z,85.72
2019-03-22T11:55:38.218Z,85.80
2019-03-22T11:58:04.379Z,85.77
2019-03-22T12:00:30.499Z,86.22
2019-03-22T12:02:56.632Z,83.83
2019-03-22T12:05:23.582Z,84.58
2019-03-22T12:07:49.696Z,84.56
2019-03-22T12:10:17.880Z,85.24
2019-03-22T12:12:44.381Z,84.92
2019-03-22T12:15:13.727Z,85.05
2019-03-22T12:17:40.055Z,85.27
2019-03-22T12:20:19.246Z,85.14
2019-03-22T12:22:45.575Z,85.76
2019-03-22T12:25:14.854Z,85.72
2019-03-22T12:27:40.972Z,85.75
2019-03-22T12:30:12.984Z,85.33
2019-03-22T12:32:39.013Z,85.31
2019-03-22T12:35:06.385Z,85.02
2019-03-22T12:37:32.495Z,86.00
2019-03-22T12:39:58.623Z,85.83
2019-03-22T12:42:24.760Z,85.71
2019-03-22T12:44:50.803Z,85.80
2019-03-22T12:47:17.121Z,85.59
2019-03-22T12:49:43.197Z,86.30
2019-03-22T12:52:09.255Z,86.00
2019-03-22T12:54:35.277Z,85.89
2019-03-22T12:57:01.327Z,85.92
2019-03-22T12:59:27.340Z,85.82
2019-03-22T13:01:53.423Z,85.69
2019-03-22T13:04:19.442Z,85.49
2019-03-22T13:06:45.499Z,84.85
2019-03-22T13:09:11.549Z,85.08
2019-03-22T13:11:37.687Z,85.23
2019-03-22T13:14:03.742Z,85.34
2019-03-22T13:16:31.674Z,85.43
2019-03-22T13:18:57.703Z,85.43
2019-03-22T13:21:23.827Z,85.37
2019-03-22T13:23:50.351Z,85.56
2019-03-22T13:26:16.421Z,85.40
2019-03-22T13:28:42.553Z,86.08
2019-03-22T13:31:08.840Z,85.94
2019-03-22T13:33:35.144Z,85.98
2019-03-22T13:36:01.266Z,86.14
2019-03-22T13:38:27.396Z,85.53
2019-03-22T13:40:53.733Z,85.85
2019-03-22T13:43:19.826Z,85.22
2019-03-22T13:45:46.003Z,85.20
2019-03-22T13:48:12.527Z,85.79
2019-03-22T13:50:38.672Z,84.64
2019-03-22T13:53:04.841Z,84.79
2019-03-22T13:55:30.869Z,84.89
2019-03-22T13:57:57.070Z,84.89
2019-03-22T14:00:23.488Z,84.94
2019-03-22T14:02:49.612Z,85.24
2019-03-22T14:05:15.633Z,85.01
2019-03-22T14:07:41.699Z,85.03
2019-03-22T14:10:10.549Z,84.90
2019-03-22T14:12:37.172Z,84.97
2019-03-22T14:15:07.209Z,84.60
2019-03-22T14:17:33.226Z,85.03
2019-03-22T14:19:59.287Z,84.72
2019-03-22T14:22:25.424Z,84.96
2019-03-22T14:24:51.608Z,85.14
2019-03-22T14:27:17.636Z,84.45
2019-03-22T14:29:43.663Z,84.87
2019-03-22T14:32:09.707Z,84.79
2019-03-22T14:34:35.850Z,84.35
2019-03-22T14:37:01.946Z,84.31
2019-03-22T14:39:28.008Z,84.84
2019-03-22T14:41:54.149Z,85.00
2019-03-22T14:44:25.266Z,84.32
2019-03-22T14:46:48.481Z,84.06
2019-03-22T14:49:14.494Z,85.03
2019-03-22T14:51:40.632Z,84.45
2019-03-22T14:54:06.751Z,85.63
2019-03-22T14:56:32.857Z,85.75
2019-03-22T14:58:58.892Z,86.06
2019-03-22T15:01:25.066Z,86.29
2019-03-22T15:03:51.378Z,86.04
2019-03-22T15:06:17.535Z,86.06
2019-03-22T15:08:43.605Z,85.36
2019-03-22T15:11:09.666Z,85.27
2019-03-22T15:13:37.657Z,85.91
2019-03-22T15:16:22.535Z,86.00
2019-03-22T15:18:56.491Z,86.21
2019-03-22T15:21:27.420Z,86.01
2019-03-22T15:24:12.189Z,86.06
2019-03-22T15:26:46.152Z,86.24
2019-03-22T15:29:30.857Z,86.33
2019-03-22T15:32:14.407Z,86.62
2019-03-22T15:34:48.297Z,86.76
2019-03-22T15:37:33.443Z,86.58
2019-03-22T15:40:03.733Z,86.69
2019-03-22T15:42:30.350Z,86.37
2019-03-22T15:44:57.954Z,86.52
2019-03-22T15:47:24.251Z,86.75
2019-03-22T15:49:50.379Z,85.37
2019-03-22T15:52:16.432Z,86.14
2019-03-22T15:54:42.621Z,85.65
2019-03-22T15:57:08.745Z,85.62
2019-03-22T15:59:34.810Z,85.30
2019-03-22T16:02:01.068Z,85.39
2019-03-22T16:04:27.151Z,85.35
2019-03-22T16:06:53.291Z,85.31
2019-03-22T16:09:19.597Z,85.48
2019-03-22T16:11:45.694Z,85.10
2019-03-22T16:14:11.853Z,84.68
2019-03-22T16:16:37.925Z,85.47
2019-03-22T16:19:04.301Z,86.00
2019-03-22T16:21:40.342Z,86.18
2019-03-22T16:24:06.372Z,86.94
2019-03-22T16:26:32.382Z,86.11
2019-03-22T16:28:58.474Z,86.59
2019-03-22T16:31:24.543Z,86.56
2019-03-22T16:33:54.289Z,86.60
2019-03-22T16:36:18.839Z,86.62
2019-03-22T16:38:44.888Z,86.56
2019-03-22T16:41:11.191Z,86.17
2019-03-22T16:43:37.257Z,86.59
2019-03-22T16:46:03.544Z,86.34
2019-03-22T16:48:29.726Z,86.66
2019-03-22T16:50:57.167Z,87.60
2019-03-22T16:53:23.278Z,87.22
2019-03-22T16:55:49.394Z,87.40
2019-03-22T16:58:15.503Z,87.40
2019-03-22T17:00:41.590Z,87.56
2019-03-22T17:03:07.704Z,87.43
2019-03-22T17:05:33.812Z,87.71
2019-03-22T17:07:59.973Z,87.75
2019-03-22T17:10:26.155Z,87.57
2019-03-22T17:12:52.181Z,87.31
2019-03-22T17:15:18.210Z,87.70
2019-03-22T17:17:44.325Z,87.58
2019-03-22T17:20:10.762Z,88.01
2019-03-22T17:22:36.799Z,88.41
2019-03-22T17:25:05.188Z,88.01
2019-03-22T17:27:32.339Z,88.04
2019-03-22T17:29:58.382Z,88.39
2019-03-22T17:32:24.449Z,88.27
2019-03-22T17:34:53.722Z,88.65
2019-03-22T17:37:21.090Z,89.15
2019-03-22T17:39:47.235Z,89.15
2019-03-22T17:42:13.481Z,89.01
2019-03-22T17:44:39.599Z,88.61
2019-03-22T17:47:05.665Z,88.30
2019-03-22T17:49:31.786Z,88.49
2019-03-22T17:51:57.800Z,88.26
2019-03-22T17:54:23.900Z,88.93
2019-03-22T17:56:50.066Z,89.26
2019-03-22T17:59:16.226Z,89.21
2019-03-22T18:01:42.355Z,89.35
2019-03-22T18:04:08.406Z,88.96
2019-03-22T18:06:34.553Z,89.29
2019-03-22T18:09:00.883Z,89.65
2019-03-22T18:11:26.942Z,89.58
2019-03-22T18:13:53.094Z,89.44
2019-03-22T18:16:19.100Z,89.34
2019-03-22T18:18:45.142Z,89.07
2019-03-22T18:21:12.627Z,89.16
2019-03-22T18:23:38.943Z,89.13
2019-03-22T18:26:05.099Z,89.55
2019-03-22T18:28:31.195Z,89.77
2019-03-22T18:30:57.220Z,89.47
2019-03-22T18:33:23.450Z,91.44
2019-03-22T18:35:49.493Z,90.84
2019-03-22T18:38:15.861Z,88.31
2019-03-22T18:40:41.981Z,88.72
2019-03-22T18:43:08.095Z,88.91
2019-03-22T18:45:34.231Z,89.10
2019-03-22T18:48:00.294Z,89.28
2019-03-22T18:50:26.437Z,89.15
2019-03-22T18:52:52.576Z,89.71
2019-03-22T18:55:18.660Z,89.77
2019-03-22T18:57:45.320Z,89.41
2019-03-22T19:00:14.253Z,89.75
2019-03-22T19:02:40.444Z,89.78
2019-03-22T19:05:07.386Z,90.14
2019-03-22T19:07:33.831Z,89.29
2019-03-22T19:10:01.791Z,89.81
2019-03-22T19:12:28.016Z,89.75
2019-03-22T19:14:54.263Z,90.48
2019-03-22T19:17:20.435Z,89.72
2019-03-22T19:19:46.571Z,90.20
2019-03-22T19:22:12.643Z,90.36
2019-03-22T19:24:38.851Z,90.13
2019-03-22T19:27:04.954Z,89.87
2019-03-22T19:29:31.490Z,89.91
2019-03-22T19:32:00.301Z,90.40
2019-03-22T19:34:25.612Z,90.71
2019-03-22T19:36:51.710Z,90.82
2019-03-22T19:39:17.864Z,91.31
2019-03-22T19:41:44.112Z,91.61
2019-03-22T19:44:10.261Z,91.92
2019-03-22T19:46:36.522Z,91.87
2019-03-22T19:49:02.674Z,92.07
2019-03-22T19:51:28.829Z,92.48
2019-03-22T19:53:54.899Z,92.74
2019-03-22T19:56:21.021Z,93.05
2019-03-22T19:58:47.707Z,93.21
2019-03-22T20:01:14.564Z,93.20
2019-03-22T20:03:40.874Z,93.45
2019-03-22T20:06:08.594Z,93.75
2019-03-22T20:08:34.761Z,94.02
2019-03-22T20:11:01.342Z,93.90
2019-03-22T20:13:27.453Z,94.39
2019-03-22T20:15:53.520Z,94.73
2019-03-22T20:18:22.414Z,94.82
2019-03-22T20:20:48.571Z,95.54
2019-03-22T20:23:14.646Z,95.41
2019-03-22T20:25:40.776Z,94.72
2019-03-22T20:28:06.899Z,93.70
2019-03-22T20:30:33.208Z,93.62
2019-03-22T20:32:59.376Z,93.19
2019-03-22T20:35:25.710Z,93.20
2019-03-22T20:37:51.858Z,93.75
2019-03-22T20:40:18.528Z,93.80
2019-03-22T20:42:45.257Z,94.62
2019-03-22T20:45:11.784Z,94.85
2019-03-22T20:47:38.893Z,94.96
2019-03-22T20:50:09.354Z,94.71
2019-03-22T20:52:35.910Z,95.02
2019-03-22T20:55:07.152Z,95.36
2019-03-22T20:57:32.820Z,95.34
2019-03-22T20:59:58.900Z,95.46
2019-03-22T21:02:25.002Z,95.48
2019-03-22T21:04:54.019Z,95.89
2019-03-22T21:07:20.879Z,96.02
2019-03-22T21:09:47.378Z,96.24
2019-03-22T21:12:13.539Z,96.57
2019-03-22T21:14:39.915Z,96.57
2019-03-22T21:17:06.427Z,96.57
2019-03-22T21:19:32.718Z,96.79
2019-03-22T21:21:59.179Z,96.48
2019-03-22T21:24:26.526Z,96.76
2019-03-22T21:26:53.742Z,96.96
2019-03-22T21:29:19.895Z,96.92
2019-03-22T21:31:46.026Z,96.95
2019-03-22T21:34:12.119Z,97.17
2019-03-22T21:36:38.447Z,97.60
2019-03-22T21:39:05.421Z,97.50
2019-03-22T21:41:32.412Z,97.46
2019-03-22T21:43:58.535Z,97.47
2019-03-22T21:46:24.732Z,97.71
2019-03-22T21:48:50.954Z,97.95
2019-03-22T21:51:17.188Z,97.78
2019-03-22T21:53:43.768Z,98.00
2019-03-22T21:56:09.996Z,98.02
2019-03-22T21:58:36.255Z,97.95
2019-03-22T22:01:02.478Z,97.86
2019-03-22T22:03:28.775Z,97.89
2019-03-22T22:05:56.232Z,99.39
2019-03-22T22:08:22.839Z,98.64
2019-03-22T22:10:59.308Z,98.60
2019-03-22T22:13:19.645Z,98.42
2019-03-22T22:15:45.794Z,98.51
2019-03-22T22:18:11.929Z,98.87
2019-03-22T22:20:38.057Z,98.37
2019-03-22T22:23:04.214Z,98.50
2019-03-22T22:25:30.634Z,98.93
2019-03-22T22:27:56.838Z,99.10
2019-03-22T22:30:22.963Z,99.46
2019-03-22T22:32:49.159Z,99.04
2019-03-22T22:35:15.320Z,99.04
2019-03-22T22:37:41.481Z,99.11
2019-03-22T22:40:12.223Z,99.30
2019-03-22T22:42:38.438Z,99.50
2019-03-22T22:45:06.245Z,99.65
2019-03-22T22:47:32.678Z,99.69
2019-03-22T22:49:58.733Z,99.34
2019-03-22T22:52:25.127Z,99.59
2019-03-22T22:54:51.261Z,99.93
2019-03-22T22:57:17.524Z,99.90
2019-03-22T22:59:43.771Z,100.01
2019-03-22T23:02:10.005Z,100.04
2019-03-22T23:04:38.081Z,100.37
2019-03-22T23:07:04.303Z,100.20
2019-03-22T23:09:30.639Z,100.28
2019-03-22T23:11:58.712Z,100.43
2019-03-22T23:14:24.884Z,100.29
2019-03-22T23:16:58.822Z,100.31
2019-03-22T23:19:24.975Z,100.62
2019-03-22T23:21:51.248Z,100.08
2019-03-22T23:24:17.762Z,99.97
2019-03-22T23:26:43.999Z,99.83
2019-03-22T23:29:10.485Z,100.24
2019-03-22T23:31:36.625Z,100.05
2019-03-22T23:34:02.903Z,100.03
2019-03-22T23:36:29.124Z,100.31
2019-03-22T23:38:55.187Z,100.04
2019-03-22T23:41:21.309Z,100.21
2019-03-22T23:43:47.433Z,100.43
2019-03-22T23:46:13.559Z,100.37
2019-03-22T23:48:39.833Z,100.53
2019-03-22T23:51:06.444Z,100.41
2019-03-22T23:53:32.994Z,100.56
2019-03-22T23:55:59.376Z,101.10
2019-03-22T23:58:25.503Z,100.97
